Jack Brusco — WDC3066 — position and weather

sailwx.info

Track history (hours):
 
Tides and Currents Weather Stations Pressure Air Temp Water Temp Dewpoint Dewpoint Depression Visibility Wind Speed Wind Dir Waves Ship Positions

Jack Brusco

Owner: Brusco Tug & Barge, Inc., Longview, WA. More information available from US FCC via Universal Licensing System and Coast Guard Vessel Documentation Center.

Last reported at 2017-Mar-26 12:33 UTC. Time now 2017-Mar-26 12:58 UTC.
Position N 46°12' W 123°23'.

Length 36 m; draft 5.2 m.

Type: Tug. MMSI: 3699086.

Date/timePositionNaut miles runAvg speedWind from/ knotsBaromVisibWave heightAir tempDewpointWater temp
2017-Mar-26 12:33N 46°12' W 123°23'0 0.0
2017-Mar-26 11:33N 46°12' W 123°23'0 0.0
2017-Mar-26 10:33N 46°12' W 123°23'0 0.0
2017-Mar-26 09:33N 46°12' W 123°23'0 0.0
2017-Mar-26 08:33N 46°12' W 123°23'0 0.0
2017-Mar-26 07:33N 46°12' W 123°23'0 0.0
2017-Mar-26 06:33N 46°12' W 123°23'0 0.0
2017-Mar-26 05:33N 46°12' W 123°23'0 0.0
2017-Mar-26 04:33N 46°12' W 123°23'0 0.0
2017-Mar-26 03:33N 46°12' W 123°23'6 6.0
2017-Mar-26 02:34N 46°09' W 123°16'1212.1
2017-Mar-26 01:33N 46°07' W 122°58'1 0.7
2017-Mar-26 00:33N 46°07' W 122°59'5 5.3
2017-Mar-25 23:33N 46°10' W 123°06'5 4.8
2017-Mar-25 22:33N 46°10' W 123°12'6 5.7
2017-Mar-25 21:34N 46°09' W 123°20'6 5.5
2017-Mar-25 20:33N 46°13' W 123°26'6 5.6
2017-Mar-25 19:33N 46°16' W 123°32'8 7.8
2017-Mar-25 18:33N 46°14' W 123°43'9 8.7
2017-Mar-25 17:33N 46°12' W 123°55'7 6.8
2017-Mar-25 16:33N 46°15' W 124°04'6 5.9
2017-Mar-25 15:34N 46°12' W 124°11'6 6.1
2017-Mar-25 14:33N 46°08' W 124°18'8 7.9
2017-Mar-25 13:33N 46°02' W 124°25'8 7.7
2017-Mar-25 12:33N 45°56' W 124°32'8 7.9
2017-Mar-25 11:33N 45°48' W 124°33'8 8.0
2017-Mar-25 10:34N 45°40' W 124°34'8 8.1
2017-Mar-25 09:34N 45°32' W 124°35'8 8.2
2017-Mar-25 08:33N 45°24' W 124°36'  
2017-Mar-22 12:18N 45°11' W 124°22'4 4.8
2017-Mar-22 11:30N 45°14' W 124°20'5 4.9
2017-Mar-22 10:33N 45°19' W 124°18'5 4.6
2017-Mar-22 09:33N 45°23' W 124°16'4 4.1
2017-Mar-22 08:33N 45°27' W 124°14'4 4.0
2017-Mar-22 07:33N 45°31' W 124°14'4 4.5
2017-Mar-22 06:34N 45°35' W 124°13'6 5.7
2017-Mar-22 05:33N 45°41' W 124°14'6 6.0
2017-Mar-22 04:33N 45°47' W 124°16'6 5.9
2017-Mar-22 03:34N 45°53' W 124°17'7 7.1
2017-Mar-22 02:34N 45°60' W 124°19'7 7.1
2017-Mar-22 01:33N 46°07' W 124°18'7 7.5
2017-Mar-22 00:33N 46°12' W 124°10'6 6.2
2017-Mar-21 23:34N 46°16' W 124°03'8 8.4
2017-Mar-21 22:33N 46°12' W 123°52'9 8.9
2017-Mar-21 21:34N 46°15' W 123°40'9 9.2
2017-Mar-21 20:33N 46°15' W 123°27'9 8.7
2017-Mar-21 19:33N 46°09' W 123°19'10 9.5
2017-Mar-21 18:33N 46°10' W 123°06'6 6.4
2017-Mar-21 17:33N 46°07' W 122°58'5 5.2
2017-Mar-21 16:33N 46°10' W 123°05'9 8.9
2017-Mar-21 15:34N 46°09' W 123°17'6 6.2
2017-Mar-21 14:33N 46°12' W 123°24'  
2017-Mar-18 01:26N 46°12' W 123°23'4 4.4
2017-Mar-18 00:34N 46°15' W 123°27'1111.2
2017-Mar-17 23:33N 46°14' W 123°43'1211.6
2017-Mar-17 22:34N 46°14' W 123°60'1110.6
2017-Mar-17 21:34N 46°13' W 124°15'9 8.7
2017-Mar-17 20:34N 46°21' W 124°20'9 9.3
2017-Mar-17 19:33N 46°30' W 124°23'1010.1
2017-Mar-17 18:34N 46°40' W 124°25'1110.8
2017-Mar-17 17:34N 46°51' W 124°29'1110.9
2017-Mar-17 16:33N 47°02' W 124°33'1111.1
2017-Mar-17 15:33N 47°12' W 124°37'6110.0
2017-Mar-17 09:25N 48°12' W 124°57'8 8.7
2017-Mar-17 08:33N 48°19' W 124°53'9 9.1
2017-Mar-17 07:33N 48°26' W 124°43'1211.9
2017-Mar-17 06:34N 48°21' W 124°27'1313.0
2017-Mar-17 05:34N 48°16' W 124°09'1212.4
2017-Mar-17 04:34N 48°11' W 123°52'1312.6
2017-Mar-17 03:34N 48°12' W 123°33'1211.9
2017-Mar-17 02:34N 48°19' W 123°19'1111.5
2017-Mar-17 01:34N 48°30' W 123°13'1211.9
2017-Mar-17 00:33N 48°42' W 123°14'1110.6
2017-Mar-16 23:33N 48°49' W 123°02'1313.4
2017-Mar-16 22:33N 48°58' W 123°18'1313.3
2017-Mar-16 21:33N 49°07' W 123°33'1212.3
2017-Mar-16 20:33N 49°13' W 123°49'5 4.6
2017-Mar-16 19:33N 49°08' W 123°51'0 0.3
2017-Mar-16 18:33N 49°09' W 123°51'4 3.5
2017-Mar-16 17:33N 49°12' W 123°52'6 5.6
2017-Mar-16 16:33N 49°12' W 123°44'6 6.1
2017-Mar-16 15:33N 49°09' W 123°36'6 6.5
2017-Mar-16 14:33N 49°04' W 123°29'7 6.8
2017-Mar-16 13:33N 48°60' W 123°21'  
Track history (hours):
 
Tides and Currents Weather Stations Pressure Air Temp Water Temp Dewpoint Dewpoint Depression Visibility Wind Speed Wind Dir Waves Ship Positions

Jack Brusco

Owner: Brusco Tug & Barge, Inc., Longview, WA. More information available from US FCC via Universal Licensing System and Coast Guard Vessel Documentation Center.

Last reported at 2017-Mar-26 12:33 UTC. Time now 2017-Mar-26 12:58 UTC.
Position N 46°12' W 123°23'.

Length 36 m; draft 5.2 m.

Type: Tug. MMSI: 3699086.

Date/timePositionNaut miles runAvg speedWind from/ knotsBaromVisibWave heightAir tempDewpointWater temp
2017-Mar-26 12:33N 46°12' W 123°23'0 0.0
2017-Mar-26 11:33N 46°12' W 123°23'0 0.0
2017-Mar-26 10:33N 46°12' W 123°23'0 0.0
2017-Mar-26 09:33N 46°12' W 123°23'0 0.0
2017-Mar-26 08:33N 46°12' W 123°23'0 0.0
2017-Mar-26 07:33N 46°12' W 123°23'0 0.0
2017-Mar-26 06:33N 46°12' W 123°23'0 0.0
2017-Mar-26 05:33N 46°12' W 123°23'0 0.0
2017-Mar-26 04:33N 46°12' W 123°23'0 0.0
2017-Mar-26 03:33N 46°12' W 123°23'6 6.0
2017-Mar-26 02:34N 46°09' W 123°16'1212.1
2017-Mar-26 01:33N 46°07' W 122°58'1 0.7
2017-Mar-26 00:33N 46°07' W 122°59'5 5.3
2017-Mar-25 23:33N 46°10' W 123°06'5 4.8
2017-Mar-25 22:33N 46°10' W 123°12'6 5.7
2017-Mar-25 21:34N 46°09' W 123°20'6 5.5
2017-Mar-25 20:33N 46°13' W 123°26'6 5.6
2017-Mar-25 19:33N 46°16' W 123°32'8 7.8
2017-Mar-25 18:33N 46°14' W 123°43'9 8.7
2017-Mar-25 17:33N 46°12' W 123°55'7 6.8
2017-Mar-25 16:33N 46°15' W 124°04'6 5.9
2017-Mar-25 15:34N 46°12' W 124°11'6 6.1
2017-Mar-25 14:33N 46°08' W 124°18'8 7.9
2017-Mar-25 13:33N 46°02' W 124°25'8 7.7
2017-Mar-25 12:33N 45°56' W 124°32'8 7.9
2017-Mar-25 11:33N 45°48' W 124°33'8 8.0
2017-Mar-25 10:34N 45°40' W 124°34'8 8.1
2017-Mar-25 09:34N 45°32' W 124°35'8 8.2
2017-Mar-25 08:33N 45°24' W 124°36'  
2017-Mar-22 12:18N 45°11' W 124°22'4 4.8
2017-Mar-22 11:30N 45°14' W 124°20'5 4.9
2017-Mar-22 10:33N 45°19' W 124°18'5 4.6
2017-Mar-22 09:33N 45°23' W 124°16'4 4.1
2017-Mar-22 08:33N 45°27' W 124°14'4 4.0
2017-Mar-22 07:33N 45°31' W 124°14'4 4.5
2017-Mar-22 06:34N 45°35' W 124°13'6 5.7
2017-Mar-22 05:33N 45°41' W 124°14'6 6.0
2017-Mar-22 04:33N 45°47' W 124°16'6 5.9
2017-Mar-22 03:34N 45°53' W 124°17'7 7.1
2017-Mar-22 02:34N 45°60' W 124°19'7 7.1
2017-Mar-22 01:33N 46°07' W 124°18'7 7.5
2017-Mar-22 00:33N 46°12' W 124°10'6 6.2
2017-Mar-21 23:34N 46°16' W 124°03'8 8.4
2017-Mar-21 22:33N 46°12' W 123°52'9 8.9
2017-Mar-21 21:34N 46°15' W 123°40'9 9.2
2017-Mar-21 20:33N 46°15' W 123°27'9 8.7
2017-Mar-21 19:33N 46°09' W 123°19'10 9.5
2017-Mar-21 18:33N 46°10' W 123°06'6 6.4
2017-Mar-21 17:33N 46°07' W 122°58'5 5.2
2017-Mar-21 16:33N 46°10' W 123°05'9 8.9
2017-Mar-21 15:34N 46°09' W 123°17'6 6.2
2017-Mar-21 14:33N 46°12' W 123°24'  
2017-Mar-18 01:26N 46°12' W 123°23'4 4.4
2017-Mar-18 00:34N 46°15' W 123°27'1111.2
2017-Mar-17 23:33N 46°14' W 123°43'1211.6
2017-Mar-17 22:34N 46°14' W 123°60'1110.6
2017-Mar-17 21:34N 46°13' W 124°15'9 8.7
2017-Mar-17 20:34N 46°21' W 124°20'9 9.3
2017-Mar-17 19:33N 46°30' W 124°23'1010.1
2017-Mar-17 18:34N 46°40' W 124°25'1110.8
2017-Mar-17 17:34N 46°51' W 124°29'1110.9
2017-Mar-17 16:33N 47°02' W 124°33'1111.1
2017-Mar-17 15:33N 47°12' W 124°37'6110.0
2017-Mar-17 09:25N 48°12' W 124°57'8 8.7
2017-Mar-17 08:33N 48°19' W 124°53'9 9.1
2017-Mar-17 07:33N 48°26' W 124°43'1211.9
2017-Mar-17 06:34N 48°21' W 124°27'1313.0
2017-Mar-17 05:34N 48°16' W 124°09'1212.4
2017-Mar-17 04:34N 48°11' W 123°52'1312.6
2017-Mar-17 03:34N 48°12' W 123°33'1211.9
2017-Mar-17 02:34N 48°19' W 123°19'1111.5
2017-Mar-17 01:34N 48°30' W 123°13'1211.9
2017-Mar-17 00:33N 48°42' W 123°14'1110.6
2017-Mar-16 23:33N 48°49' W 123°02'1313.4
2017-Mar-16 22:33N 48°58' W 123°18'1313.3
2017-Mar-16 21:33N 49°07' W 123°33'1212.3
2017-Mar-16 20:33N 49°13' W 123°49'5 4.6
2017-Mar-16 19:33N 49°08' W 123°51'0 0.3
2017-Mar-16 18:33N 49°09' W 123°51'4 3.5
2017-Mar-16 17:33N 49°12' W 123°52'6 5.6
2017-Mar-16 16:33N 49°12' W 123°44'6 6.1
2017-Mar-16 15:33N 49°09' W 123°36'6 6.5
2017-Mar-16 14:33N 49°04' W 123°29'7 6.8
2017-Mar-16 13:33N 48°60' W 123°21'  

Dump ship's entire track history